createdAt,value
2019-01-16T00:02:27.222Z,8.29
2019-01-16T00:05:15.691Z,8.30
2019-01-16T00:08:16.313Z,8.30
2019-01-16T00:10:53.523Z,8.30
2019-01-16T00:13:29.605Z,8.30
2019-01-16T00:16:18.427Z,8.26
2019-01-16T00:19:05.799Z,8.27
2019-01-16T00:21:53.136Z,8.24
2019-01-16T00:24:48.196Z,8.23
2019-01-16T00:27:32.544Z,8.28
2019-01-16T00:30:18.969Z,8.31
2019-01-16T00:32:58.608Z,8.31
2019-01-16T00:35:36.456Z,8.32
2019-01-16T00:38:28.233Z,8.32
2019-01-16T00:41:14.856Z,8.32
2019-01-16T00:43:57.584Z,8.34
2019-01-16T00:46:36.821Z,8.34
2019-01-16T00:49:28.086Z,8.34
2019-01-16T00:52:22.704Z,8.34
2019-01-16T00:55:14.445Z,8.36
2019-01-16T00:58:01.865Z,8.34
2019-01-16T01:00:41.460Z,8.34
2019-01-16T01:03:29.094Z,8.35
2019-01-16T01:06:18.508Z,8.35
2019-01-16T01:08:55.733Z,8.37
2019-01-16T01:11:34.492Z,8.40
2019-01-16T01:14:27.513Z,8.39
2019-01-16T01:17:14.617Z,8.39
2019-01-16T01:20:18.491Z,8.40
2019-01-16T01:23:01.234Z,8.41
2019-01-16T01:25:53.077Z,8.42
2019-01-16T01:28:37.710Z,8.42
2019-01-16T01:31:16.708Z,8.45
2019-01-16T01:34:04.116Z,8.48
2019-01-16T01:36:44.672Z,8.47
2019-01-16T01:39:45.396Z,8.46
2019-01-16T01:42:32.936Z,8.46
2019-01-16T01:45:29.566Z,8.49
2019-01-16T01:48:24.930Z,8.49
2019-01-16T01:51:13.627Z,8.47
2019-01-16T01:54:01.332Z,8.51
2019-01-16T01:57:05.569Z,8.52
2019-01-16T01:59:54.261Z,8.50
2019-01-16T02:02:41.682Z,8.50
2019-01-16T02:05:29.584Z,8.54
2019-01-16T02:08:09.508Z,8.55
2019-01-16T02:11:03.211Z,8.56
2019-01-16T02:13:45.101Z,8.53
2019-01-16T02:16:32.481Z,8.56
2019-01-16T02:19:09.476Z,8.60
2019-01-16T02:22:01.442Z,8.60
2019-01-16T02:24:49.013Z,8.62
2019-01-16T02:30:32.338Z,8.64
2019-01-16T02:33:19.846Z,8.65
2019-01-16T02:36:08.688Z,8.64
2019-01-16T02:39:00.079Z,8.64
2019-01-16T02:41:38.744Z,8.63
2019-01-16T02:44:23.173Z,8.65
2019-01-16T02:47:19.521Z,8.65
2019-01-16T02:50:13.880Z,8.64
2019-01-16T02:53:00.924Z,8.64
2019-01-16T02:55:48.567Z,8.66
2019-01-16T02:58:29.917Z,8.65
2019-01-16T03:01:14.965Z,8.68
2019-01-16T03:04:02.423Z,8.68
2019-01-16T03:06:49.780Z,8.72
2019-01-16T03:09:29.590Z,8.72
2019-01-16T03:12:33.717Z,8.72
2019-01-16T03:15:34.622Z,8.72
2019-01-16T03:18:35.640Z,8.72
2019-01-16T03:21:19.029Z,8.72
2019-01-16T03:24:17.710Z,8.72
2019-01-16T03:27:04.833Z,8.71
2019-01-16T03:29:52.225Z,8.70
2019-01-16T03:32:36.146Z,8.69
2019-01-16T03:35:39.761Z,8.71
2019-01-16T03:38:43.654Z,8.70
2019-01-16T03:41:41.598Z,8.69
2019-01-16T03:44:25.489Z,8.70
2019-01-16T03:47:14.169Z,8.69
2019-01-16T03:49:55.769Z,8.67
2019-01-16T03:52:47.379Z,8.71
2019-01-16T03:55:51.187Z,8.70
2019-01-16T04:02:00.617Z,8.68
2019-01-16T04:04:39.657Z,8.65
2019-01-16T04:07:26.938Z,8.64
2019-01-16T04:10:10.030Z,8.65
2019-01-16T04:12:50.956Z,8.64
2019-01-16T04:15:51.954Z,8.65
2019-01-16T04:18:42.885Z,8.65
2019-01-16T04:21:34.940Z,8.67
2019-01-16T04:24:24.696Z,8.65
2019-01-16T04:27:06.197Z,8.66
2019-01-16T04:30:03.889Z,8.64
2019-01-16T04:32:51.168Z,8.62
2019-01-16T04:35:38.212Z,8.61
2019-01-16T04:38:25.596Z,8.62
2019-01-16T04:41:04.230Z,8.66
2019-01-16T04:44:04.306Z,8.64
2019-01-16T04:46:51.866Z,8.63
2019-01-16T04:49:46.560Z,8.61
2019-01-16T04:52:27.460Z,8.61
2019-01-16T04:55:22.321Z,8.58
2019-01-16T04:58:02.001Z,8.55
2019-01-16T05:00:50.874Z,8.54
2019-01-16T05:03:31.391Z,8.52
2019-01-16T05:06:18.753Z,8.53
2019-01-16T05:09:01.632Z,8.47
2019-01-16T05:11:46.084Z,8.45
2019-01-16T05:14:41.431Z,8.39
2019-01-16T05:17:30.525Z,8.34
2019-01-16T05:20:18.121Z,8.28
2019-01-16T05:23:06.132Z,8.26
2019-01-16T05:25:48.866Z,8.25
2019-01-16T05:28:46.479Z,8.23
2019-01-16T05:31:33.583Z,8.20
2019-01-16T05:34:39.352Z,8.20
2019-01-16T05:37:28.102Z,8.14
2019-01-16T05:40:28.787Z,8.12
2019-01-16T05:43:20.500Z,8.10
2019-01-16T05:46:07.564Z,8.07
2019-01-16T05:49:02.396Z,8.02
2019-01-16T05:51:54.143Z,8.06
2019-01-16T05:54:44.566Z,8.03
2019-01-16T05:57:39.327Z,8.06
2019-01-16T06:00:39.345Z,8.02
2019-01-16T06:03:46.344Z,8.02
2019-01-16T06:06:35.321Z,8.00
2019-01-16T06:09:25.721Z,8.01
2019-01-16T06:12:14.701Z,8.03
2019-01-16T06:18:14.368Z,7.99
2019-01-16T06:20:54.732Z,7.97
2019-01-16T06:23:42.226Z,7.99
2019-01-16T06:26:21.805Z,7.98
2019-01-16T06:29:17.078Z,7.97
2019-01-16T06:32:17.474Z,7.97
2019-01-16T06:35:04.714Z,7.94
2019-01-16T06:40:58.137Z,7.94
2019-01-16T06:43:45.437Z,7.90
2019-01-16T06:46:25.496Z,7.90
2019-01-16T06:49:14.318Z,7.87
2019-01-16T06:51:51.074Z,7.84
2019-01-16T06:54:38.767Z,7.84
2019-01-16T06:57:28.993Z,7.82
2019-01-16T07:00:23.636Z,7.79
2019-01-16T07:03:18.518Z,7.75
2019-01-16T07:06:05.751Z,7.76
2019-01-16T07:09:00.303Z,7.73
2019-01-16T07:11:57.941Z,7.71
2019-01-16T07:14:45.277Z,7.70
2019-01-16T07:17:32.712Z,7.68
2019-01-16T07:20:17.475Z,7.66
2019-01-16T07:22:55.382Z,7.69
2019-01-16T07:25:49.880Z,7.70
2019-01-16T07:28:42.925Z,7.71
2019-01-16T07:31:25.076Z,7.70
2019-01-16T07:34:13.005Z,7.70
2019-01-16T07:36:52.680Z,7.72
2019-01-16T07:39:36.297Z,7.69
2019-01-16T07:42:31.147Z,7.65
2019-01-16T07:45:25.999Z,7.66
2019-01-16T07:48:23.712Z,7.66
2019-01-16T07:51:12.666Z,7.67
2019-01-16T07:54:13.821Z,7.67
2019-01-16T07:56:57.080Z,7.66
2019-01-16T07:59:47.359Z,7.66
2019-01-16T08:02:34.754Z,7.71
2019-01-16T08:05:23.099Z,7.69
2019-01-16T08:08:15.878Z,7.70
2019-01-16T08:10:59.815Z,7.67
2019-01-16T08:13:48.326Z,7.63
2019-01-16T08:16:45.875Z,7.65
2019-01-16T08:19:33.759Z,7.67
2019-01-16T08:22:25.772Z,7.68
2019-01-16T08:25:11.840Z,7.69
2019-01-16T08:27:56.068Z,7.64
2019-01-16T08:30:43.568Z,7.64
2019-01-16T08:33:32.526Z,7.67
2019-01-16T08:36:19.837Z,7.63
2019-01-16T08:39:07.012Z,7.60
2019-01-16T08:42:22.583Z,7.52
2019-01-16T08:45:09.963Z,7.46
2019-01-16T08:47:58.832Z,7.44
2019-01-16T08:50:55.218Z,7.44
2019-01-16T08:53:38.582Z,7.37
2019-01-16T08:56:33.596Z,7.37
2019-01-16T08:59:21.023Z,7.35
2019-01-16T09:02:19.863Z,7.33
2019-01-16T09:05:08.633Z,7.39
2019-01-16T09:08:25.106Z,7.36
2019-01-16T09:11:28.901Z,7.34
2019-01-16T09:14:20.664Z,7.35
2019-01-16T09:17:05.235Z,7.35
2019-01-16T09:19:44.703Z,7.35
2019-01-16T09:22:24.671Z,7.35
2019-01-16T09:25:11.992Z,7.36
2019-01-16T09:28:02.841Z,7.33
2019-01-16T09:30:54.962Z,7.33
2019-01-16T09:33:46.784Z,7.35
2019-01-16T09:36:37.749Z,7.35
2019-01-16T09:39:28.431Z,7.36
2019-01-16T09:42:06.940Z,7.38
2019-01-16T09:44:55.799Z,7.36
2019-01-16T09:47:44.604Z,7.37
2019-01-16T09:50:32.621Z,7.38
2019-01-16T09:53:30.482Z,7.39
2019-01-16T09:56:09.104Z,7.41
2019-01-16T09:58:52.383Z,7.43
2019-01-16T10:01:48.336Z,7.44
2019-01-16T10:04:36.970Z,7.44
2019-01-16T10:07:14.871Z,7.47
2019-01-16T10:10:02.164Z,7.52
2019-01-16T10:12:49.455Z,7.52
2019-01-16T10:15:37.066Z,7.54
2019-01-16T10:18:32.013Z,7.53
2019-01-16T10:21:18.456Z,7.55
2019-01-16T10:24:22.405Z,7.58
2019-01-16T10:27:09.569Z,7.60
2019-01-16T10:30:01.248Z,7.63
2019-01-16T10:32:47.491Z,7.64
2019-01-16T10:35:32.188Z,7.62
2019-01-16T10:38:11.653Z,7.60
2019-01-16T10:41:25.409Z,7.63
2019-01-16T10:44:01.554Z,7.62
2019-01-16T10:46:53.281Z,7.62
2019-01-16T10:49:41.336Z,7.57
2019-01-16T10:52:30.249Z,7.55
2019-01-16T10:55:27.982Z,7.55
2019-01-16T10:58:37.433Z,7.62
2019-01-16T11:01:37.919Z,7.67
2019-01-16T11:04:29.734Z,7.69
2019-01-16T11:07:16.956Z,7.67
2019-01-16T11:09:59.839Z,7.68
2019-01-16T11:12:43.212Z,7.68
2019-01-16T11:15:34.970Z,7.69
2019-01-16T11:18:19.292Z,7.69
2019-01-16T11:21:11.089Z,7.65
2019-01-16T11:23:58.686Z,7.66
2019-01-16T11:26:48.528Z,7.69
2019-01-16T11:29:51.750Z,7.71
2019-01-16T11:32:43.346Z,7.71
2019-01-16T11:35:47.588Z,7.68
2019-01-16T11:38:39.568Z,7.74
2019-01-16T11:41:23.786Z,7.73
2019-01-16T11:44:09.400Z,7.74
2019-01-16T11:47:05.972Z,7.69
2019-01-16T11:49:51.533Z,7.70
2019-01-16T11:52:39.617Z,7.72
2019-01-16T11:55:39.628Z,7.73
2019-01-16T11:58:25.373Z,7.78
2019-01-16T12:01:20.159Z,7.77
2019-01-16T12:04:20.897Z,7.79
2019-01-16T12:07:08.215Z,7.77
2019-01-16T12:09:51.281Z,7.74
2019-01-16T12:12:33.212Z,7.72
2019-01-16T12:15:25.193Z,7.78
2019-01-16T12:18:06.632Z,7.80
2019-01-16T12:21:00.737Z,7.81
2019-01-16T12:23:58.570Z,7.79
2019-01-16T12:26:49.277Z,7.81
2019-01-16T12:29:31.236Z,7.78
2019-01-16T12:32:31.640Z,7.79
2019-01-16T12:35:19.349Z,7.82
2019-01-16T12:38:02.633Z,7.81
2019-01-16T12:41:15.601Z,7.81
2019-01-16T12:44:02.957Z,7.83
2019-01-16T12:46:54.745Z,7.87
2019-01-16T12:49:55.528Z,7.91
2019-01-16T12:52:43.944Z,7.91
2019-01-16T12:55:28.305Z,8.01
2019-01-16T12:58:15.985Z,7.98
2019-01-16T13:01:05.045Z,7.94
2019-01-16T13:04:12.432Z,7.92
2019-01-16T13:07:15.953Z,7.90
2019-01-16T13:10:03.493Z,7.89
2019-01-16T13:12:53.427Z,7.88
2019-01-16T13:15:48.795Z,7.84
2019-01-16T13:18:30.769Z,7.85
2019-01-16T13:21:10.058Z,7.83
2019-01-16T13:24:01.626Z,7.79
2019-01-16T13:26:49.402Z,7.78
2019-01-16T13:29:41.261Z,7.82
2019-01-16T13:32:48.447Z,7.86
2019-01-16T13:35:37.575Z,7.87
2019-01-16T13:38:28.949Z,7.89
2019-01-16T13:41:23.855Z,7.89
2019-01-16T13:44:17.475Z,7.92
2019-01-16T13:46:56.583Z,7.90
2019-01-16T13:50:03.527Z,7.91
2019-01-16T13:52:58.351Z,7.95
2019-01-16T13:55:49.865Z,7.92
2019-01-16T13:58:47.755Z,7.91
2019-01-16T14:01:29.043Z,7.91
2019-01-16T14:04:27.235Z,7.88
2019-01-16T14:07:04.374Z,7.87
2019-01-16T14:09:44.144Z,7.94
2019-01-16T14:12:35.875Z,7.94
2019-01-16T14:15:27.534Z,7.93
2019-01-16T14:18:19.294Z,7.87
2019-01-16T14:21:10.966Z,7.84
2019-01-16T14:23:47.935Z,7.83
2019-01-16T14:26:42.713Z,7.78
2019-01-16T14:29:33.070Z,7.76
2019-01-16T14:32:22.165Z,7.72
2019-01-16T14:35:10.363Z,7.67
2019-01-16T14:37:59.568Z,7.68
2019-01-16T14:40:46.739Z,7.74
2019-01-16T14:43:43.665Z,7.74
2019-01-16T14:46:35.303Z,7.69
2019-01-16T14:49:21.763Z,7.65
2019-01-16T14:51:59.775Z,7.66
2019-01-16T14:54:46.285Z,7.64
2019-01-16T14:57:33.942Z,7.60
2019-01-16T15:00:18.533Z,7.57
2019-01-16T15:06:05.060Z,7.53
2019-01-16T15:08:54.463Z,7.54
2019-01-16T15:11:41.818Z,7.50
2019-01-16T15:14:45.467Z,7.49
2019-01-16T15:17:40.407Z,7.47
2019-01-16T15:20:48.109Z,7.46
2019-01-16T15:23:35.143Z,7.43
2019-01-16T15:26:16.446Z,7.38
2019-01-16T15:28:54.785Z,7.35
2019-01-16T15:31:33.623Z,7.35
2019-01-16T15:34:20.911Z,7.33
2019-01-16T15:37:17.231Z,7.32
2019-01-16T15:40:04.307Z,7.30
2019-01-16T15:42:49.820Z,7.28
2019-01-16T15:45:44.788Z,7.29
2019-01-16T15:48:33.516Z,7.29
2019-01-16T15:51:20.273Z,7.28
2019-01-16T15:54:15.312Z,7.24
2019-01-16T15:57:02.693Z,7.22
2019-01-16T15:59:45.536Z,7.21
2019-01-16T16:02:30.048Z,7.21
2019-01-16T16:05:19.605Z,7.20
2019-01-16T16:08:22.177Z,7.16
2019-01-16T16:11:16.870Z,7.14
2019-01-16T16:14:08.204Z,7.12
2019-01-16T16:16:49.215Z,7.08
2019-01-16T16:19:43.756Z,7.05
2019-01-16T16:22:44.485Z,7.04
2019-01-16T16:25:31.940Z,7.05
2019-01-16T16:28:23.764Z,7.06
2019-01-16T16:31:02.234Z,7.03
2019-01-16T16:33:50.968Z,7.04
2019-01-16T16:36:37.156Z,7.02
2019-01-16T16:39:36.444Z,7.00
2019-01-16T16:42:14.409Z,6.98
2019-01-16T16:45:04.481Z,7.00
2019-01-16T16:48:06.463Z,6.94
2019-01-16T16:51:07.728Z,6.94
2019-01-16T16:53:54.943Z,7.01
2019-01-16T16:56:44.051Z,6.98
2019-01-16T16:59:28.901Z,6.87
2019-01-16T17:02:23.989Z,6.87
2019-01-16T17:05:13.391Z,6.91
2019-01-16T17:08:01.039Z,6.91
2019-01-16T17:10:57.279Z,6.93
2019-01-16T17:13:34.947Z,6.94
2019-01-16T17:16:24.411Z,6.93
2019-01-16T17:19:13.139Z,6.91
2019-01-16T17:22:10.284Z,6.94
2019-01-16T17:24:57.686Z,6.95
2019-01-16T17:28:04.622Z,6.94
2019-01-16T17:31:02.189Z,6.94
2019-01-16T17:33:50.875Z,6.94
2019-01-16T17:36:35.271Z,6.91
2019-01-16T17:39:25.750Z,6.87
2019-01-16T17:42:03.810Z,6.92
2019-01-16T17:45:10.703Z,6.92
2019-01-16T17:48:02.672Z,6.93
2019-01-16T17:50:45.114Z,6.94
2019-01-16T17:53:43.317Z,6.93
2019-01-16T17:56:32.081Z,6.94
2019-01-16T17:59:28.669Z,6.94
2019-01-16T18:02:16.007Z,6.95
2019-01-16T18:04:58.828Z,6.97
2019-01-16T18:10:43.416Z,6.98
2019-01-16T18:13:41.155Z,6.95
2019-01-16T18:16:42.675Z,6.96
2019-01-16T18:19:32.974Z,6.95
2019-01-16T18:22:25.988Z,6.96
2019-01-16T18:25:15.483Z,6.97
2019-01-16T18:28:10.683Z,7.00
2019-01-16T18:31:06.256Z,6.99
2019-01-16T18:34:04.284Z,7.00
2019-01-16T18:36:48.372Z,7.02
2019-01-16T18:39:40.157Z,7.00
2019-01-16T18:45:12.972Z,7.02
2019-01-16T18:48:04.315Z,7.00
2019-01-16T18:54:19.756Z,7.02
2019-01-16T18:57:06.523Z,7.04
2019-01-16T18:59:48.203Z,7.07
2019-01-16T19:02:31.299Z,7.08
2019-01-16T19:05:18.609Z,7.11
2019-01-16T19:08:09.306Z,7.09
2019-01-16T19:11:00.863Z,7.11
2019-01-16T19:13:47.160Z,7.12
2019-01-16T19:16:38.768Z,7.10
2019-01-16T19:19:40.015Z,7.14
2019-01-16T19:22:28.066Z,7.13
2019-01-16T19:25:32.892Z,7.18
2019-01-16T19:28:35.728Z,7.13
2019-01-16T19:31:25.896Z,7.13
2019-01-16T19:34:20.204Z,7.12
2019-01-16T19:37:07.451Z,7.15
2019-01-16T19:39:55.304Z,7.12
2019-01-16T19:42:44.952Z,7.13
2019-01-16T19:45:33.754Z,7.13
2019-01-16T19:48:40.825Z,7.14
2019-01-16T19:51:32.423Z,7.17
2019-01-16T19:54:23.949Z,7.19
2019-01-16T19:57:09.396Z,7.17
2019-01-16T19:59:54.241Z,7.13
2019-01-16T20:02:47.985Z,7.18
2019-01-16T20:05:41.152Z,7.14
2019-01-16T20:08:20.591Z,7.13
2019-01-16T20:11:05.361Z,7.15
2019-01-16T20:13:52.596Z,7.18
2019-01-16T20:16:46.415Z,7.15
2019-01-16T20:19:33.996Z,7.15
2019-01-16T20:22:22.431Z,7.15
2019-01-16T20:25:26.516Z,7.14
2019-01-16T20:28:21.824Z,7.10
2019-01-16T20:31:04.420Z,7.10
2019-01-16T20:33:47.907Z,7.11
2019-01-16T20:36:36.980Z,7.12
2019-01-16T20:39:27.498Z,7.10
2019-01-16T20:42:16.435Z,7.09
2019-01-16T20:44:54.567Z,7.08
2019-01-16T20:47:34.052Z,7.08
2019-01-16T20:50:22.308Z,7.07
2019-01-16T20:53:17.583Z,7.04
2019-01-16T20:56:03.438Z,7.06
2019-01-16T20:58:55.440Z,7.08
2019-01-16T21:01:47.126Z,7.05
2019-01-16T21:04:26.003Z,7.05
2019-01-16T21:07:26.949Z,7.06
2019-01-16T21:10:09.709Z,7.07
2019-01-16T21:13:07.559Z,7.07
2019-01-16T21:15:52.951Z,7.06
2019-01-16T21:18:32.447Z,7.06
2019-01-16T21:21:31.912Z,7.09
2019-01-16T21:24:21.672Z,7.03
2019-01-16T21:27:18.015Z,7.00
2019-01-16T21:30:10.011Z,6.95
2019-01-16T21:32:57.713Z,6.93
2019-01-16T21:35:45.859Z,6.89
2019-01-16T21:38:33.409Z,6.89
2019-01-16T21:41:30.194Z,6.85
2019-01-16T21:44:23.450Z,6.84
2019-01-16T21:47:23.180Z,6.80
2019-01-16T21:50:06.475Z,6.82
2019-01-16T21:52:43.406Z,6.82
2019-01-16T21:55:25.835Z,6.80
2019-01-16T21:58:11.604Z,6.79
2019-01-16T22:01:04.123Z,6.81
2019-01-16T22:03:51.596Z,6.81
2019-01-16T22:06:38.188Z,6.82
2019-01-16T22:09:16.569Z,6.80
2019-01-16T22:12:05.360Z,6.78
2019-01-16T22:14:57.079Z,6.81
2019-01-16T22:17:41.380Z,6.79
2019-01-16T22:20:39.337Z,6.80
2019-01-16T22:23:26.972Z,6.81
2019-01-16T22:26:15.984Z,6.78
2019-01-16T22:29:03.383Z,6.75
2019-01-16T22:31:50.988Z,6.71
2019-01-16T22:34:38.501Z,6.64
2019-01-16T22:37:36.740Z,6.60
2019-01-16T22:40:22.483Z,6.56
2019-01-16T22:43:09.027Z,6.54
2019-01-16T22:45:52.850Z,6.54
2019-01-16T22:48:33.378Z,6.53
2019-01-16T22:51:28.414Z,6.49
2019-01-16T22:54:11.286Z,6.49
2019-01-16T22:57:09.137Z,6.47
2019-01-16T22:59:57.677Z,6.46
2019-01-16T23:02:50.277Z,6.46
2019-01-16T23:05:38.155Z,6.44
2019-01-16T23:08:32.764Z,6.39
2019-01-16T23:11:22.489Z,6.40
2019-01-16T23:14:15.005Z,6.41
2019-01-16T23:17:18.940Z,6.38
2019-01-16T23:20:10.170Z,6.38
2019-01-16T23:22:48.422Z,6.39
2019-01-16T23:25:43.572Z,6.39
2019-01-16T23:28:39.902Z,6.39
2019-01-16T23:31:28.735Z,6.39
2019-01-16T23:34:16.145Z,6.40
2019-01-16T23:37:10.273Z,6.42
2019-01-16T23:39:57.444Z,6.41
2019-01-16T23:42:45.227Z,6.40
2019-01-16T23:45:32.999Z,6.40
2019-01-16T23:48:20.601Z,6.46
2019-01-16T23:51:15.186Z,6.45
2019-01-16T23:54:13.132Z,6.43
2019-01-16T23:57:07.855Z,6.42
2019-01-16T23:59:56.921Z,6.41
